Rockford, IL (61101)

11:16 AM CDT on August 21, 2017 (GMT -0500)
Pierce Ave | | Change Station

Elev 745 ft 42.31 °N, 89.09 °W | Updated 13 seconds ago

Rain
Rain
75.2 °F
Feels Like 75 °F
N
0.0
Wind Variable Wind from SSW
Gusts 0.0 mph

Today
High -- | Low -- °F
--% Chance of Precip.
Yesterday
High -- | Low -- °F
Precip. -- in
Pressure 30.03 in
Visibility 10.0 miles
Clouds Scattered Clouds 7500 ft
Mostly Cloudy 11000 ft
Overcast 25000 ft
Heat Index 75 °F
Dew Point 72 °F
Humidity 89%
Rainfall 0.00 in
Snow Depth Not available.
6:10 AM 7:47 PM
Waning Crescent, 0% visible
METAR KRFD 211554Z 04007KT 10SM -RA SCT075 BKN110 OVC250 24/21 A3004 RMK AO2 RAB50 SLP169 P0000 T02440211
Pressure 30.03 in
Visibility 10.0 miles
Clouds Scattered Clouds 7500 ft
Mostly Cloudy 11000 ft
Overcast 25000 ft
Heat Index 75 °F
Dew Point 72 °F
Humidity 89%
Rainfall 0.00 in
Snow Depth Not available.
6:10 AM 7:47 PM
Waning Crescent, 0% visible
METAR KRFD 211554Z 04007KT 10SM -RA SCT075 BKN110 OVC250 24/21 A3004 RMK AO2 RAB50 SLP169 P0000 T02440211

Get Severe Weather Alerts

Thanks for signing up!

Be on the lookout for a verification email in your inbox.

You'll start receiving the daily forecast at 6 AM.

×

10-Day Weather Forecast

Almanac

Astronomy

Aug. 21, 2017 Rise Set
Actual Time
Civil Twilight
Nautical Twilight
Astronomical Twilight
Moon
Length of Visible Light
Length of Day
Tomorrow will be .
, % of the Moon is Illuminated

Today's Extremes

State Highs State Lows

Community

WunderPhotos

Category 6

Welcome to Category 6. This is the collective home for Weather Underground's featured writeups by Dr. Jeff Masters (right), Bob Henson (left), Chris Burt, and other regular contributors.

Nearby

Air Quality

  Air Quality AQ Index Pollutant
Not available.

Snow Depth

Station Depth Elevation

Earthquake Activity

City Distance Mag. Time & Date
Minimum magnitude displayed is 2.5.

Coastal Water Temperatures

Place Temperature

Stations

Nearby Weather Stations

Station Location Temp. Windchill Dew Point Humidity Wind Precip. Elev Updated Type
                   

Watches & Warnings

There are currently no watches in effect.